NCAR-RAP Real-Time Weather Data

Output produced by METARs form (23 February 2020  02:31 UTC)
found at http://weather.rap.ucar.edu/surface/
 
KMSP 230153Z VRB04KT 10SM FEW250 01/M02 A2985 RMK AO2 SLP120 T00061022
KMSP 230053Z 16006KT 10SM FEW170 SCT250 03/M02 A2987 RMK AO2 SLP126 T00281017
KMSP 222353Z 19007KT 10SM FEW220 FEW250 FEW300 04/M01 A2988 RMK AO2 SLP128 4/007 T00441011 10056 20044 55004
KMSP 222253Z 16008KT 10SM FEW220 SCT250 SCT300 05/M02 A2987 RMK AO2 SLP123 T00501017
KMSP 222153Z 16010KT 10SM FEW190 FEW220 SCT250 06/M02 A2988 RMK AO2 SLP129 T00561017
KMSP 222053Z 16009KT 10SM FEW170 SCT200 05/M02 A2989 RMK AO2 SLP130 T00501022 56029
KMSP 221953Z 18008KT 10SM FEW170 SCT200 06/M02 A2991 RMK AO2 SLP138 T00561022
KMSP 221853Z 19007KT 10SM FEW250 06/M03 A2994 RMK AO2 SLP148 T00561028
KMSP 221753Z 21006KT 10SM FEW250 04/M03 A2998 RMK AO2 SLP160 4/008 I6000 T00391028 10039 21078 58011
KMSP 221653Z 20006KT 9SM FEW250 02/M03 A2999 RMK AO2 SLP165 T00221033
KMSP 221553Z 17004KT 8SM FEW250 M01/M04 A3001 RMK AO2 SLP172 T10111039
KMSP 221453Z 00000KT 6SM BR CLR M04/M06 A3001 RMK AO2 SLP173 I3000 T10441061 56007
KMSP 221353Z 15005KT 6SM BR CLR M07/M08 A3001 RMK AO2 SLP175 T10721083
KMSP 221253Z 12004KT 5SM BR CLR M08/M09 A3002 RMK AO2 SLP177 I1000 T10781089
KMSP 221153Z 00000KT 6SM BR CLR M07/M08 A3003 RMK AO2 SLP181 4/008 I1000 I6001 T10671078 11022 21072 56008
KMSP 221053Z 00000KT 7SM CLR M06/M08 A3004 RMK AO2 SLP182 I1000 T10611083
KMSP 220953Z 00000KT 7SM CLR M06/M07 A3005 RMK AO2 SLP186 I1001 T10561072
KMSP 220853Z 22003KT 8SM CLR M04/M07 A3006 RMK AO2 SLP188 I1000 I3000 T10441067 58005
KMSP 220753Z 22003KT 8SM CLR M03/M06 A3007 RMK AO2 SLP191 I1000 T10331061
KMSP 220653Z 00000KT 10SM CLR M04/M06 A3007 RMK AO2 SLP195 T10441061
KMSP 220553Z 20003KT 10SM CLR M02/M06 A3007 RMK AO2 SLP193 4/008 T10221056 10017 21022 400281111 58012
KMSP 220453Z 20003KT 10SM CLR M02/M06 A3009 RMK AO2 SLP200 T10171056
KMSP 220353Z 24005KT 10SM CLR M02/M06 A3010 RMK AO2 SLP204 T10171056
KMSP 220253Z 23005KT 10SM CLR M01/M05 A3011 RMK AO2 SLP207 T10061050 50001
KMSP 220153Z 23005KT 10SM CLR M01/M05 A3011 RMK AO2 SLP208 T10061050
KMSP 220053Z 22005KT 10SM CLR 01/M05 A3011 RMK AO2 SLP207 T00061050
KMSP 212353Z 23005KT 10SM CLR 01/M05 A3011 RMK AO2 SLP207 4/008 T00111050 10028 20006 55007
KMSP 212253Z 22010KT 10SM CLR 02/M05 A3010 RMK AO2 SLP205 T00171050
KMSP 212153Z 24010KT 10SM CLR 02/M06 A3012 RMK AO2 SLP211 T00221056
KMSP 212053Z 25011G19KT 10SM CLR 03/M06 A3013 RMK AO2 PK WND 25027/2031 SLP214 T00281056 56018
KMSP 211953Z 22011G25KT 10SM CLR 02/M06 A3013 RMK AO2 PK WND 22029/1908 SLP215 T00221061
KMSP 211853Z 23016G28KT 10SM CLR 01/M07 A3017 RMK AO2 PK WND 24033/1805 SLP229 T00111067
KMSP 211753Z 23017G32KT 10SM CLR 01/M07 A3018 RMK AO2 PK WND 25032/1752 SLP234 4/008 T00061072 10006 21067 56018
KMSP 211653Z 23015G31KT 10SM CLR 00/M08 A3019 RMK AO2 PK WND 22031/1644 SLP238 T00001078
KMSP 211553Z 22012G18KT 10SM CLR M02/M08 A3022 RMK AO2 SLP248 T10171083
KMSP 211453Z 22012G25KT 10SM CLR M03/M09 A3023 RMK AO2 PK WND 24026/1426 SLP254 T10331094 56019
KMSP 211353Z 21010G18KT 10SM CLR M04/M10 A3024 RMK AO2 SLP258 T10441100
KMSP 211253Z 22007KT 10SM CLR M06/M11 A3027 RMK AO2 SLP267 T10561106
KMSP 211153Z 20004KT 10SM CLR M07/M11 A3029 RMK AO2 SLP275 4/008 T10671111 11067 21111 56032
KMSP 211053Z 21005KT 10SM CLR M08/M12 A3032 RMK AO2 SLP285 T10781122
KMSP 210953Z 21006KT 10SM CLR M08/M13 A3035 RMK AO2 SLP294 T10831128
KMSP 210853Z 20005KT 10SM CLR M10/M14 A3039 RMK AO2 SLP308 T11001139 58033
KMSP 210753Z 20005KT 10SM CLR M11/M15 A3043 RMK AO2 SLP322 T11061150
KMSP 210653Z 20006KT 10SM CLR M11/M16 A3046 RMK AO2 SLP333 T11111161
KMSP 210553Z 20005KT 10SM CLR M11/M16 A3049 RMK AO2 SLP345 4/008 T11111161 11106 21122 411001211 58022
KMSP 210453Z 18004KT 10SM CLR M12/M17 A3051 RMK AO2 SLP354 T11171167
KMSP 210353Z 21004KT 10SM CLR M12/M17 A3054 RMK AO2 SLP366 T11171167
KMSP 210253Z 21006KT 10SM CLR M12/M17 A3055 RMK AO2 SLP370 T11221172 58018